Aérodrome :
LOGIN :

S'inscrire | Disclaimer

   EN    FR    IT 

 










Légende :    VFR   VFR Marginal   IFR   IFR Intensif   IFR Très Intensif
Visi : 
Plafond : 
>= 8 km
>= 3000ft
5 à 8 km
1000 à 3000 ft
1500m à 5 km
500 à 1000 ft
800 à 1500m
200 à 500 ft
< 800m
< 200 ft
Symboles :   Orages  Brouillard  Fortes neiges  Fortes précipitations  Vent > 20 kt
SIGMETs :   Divers  Orages  Givrage  Turbulence  Onde Orograph.  Cendres Volcan.







- Altitude de l'aérodrome : 291 ft
- Code IATA : ORY
- Voir les cartes d'approche


LFPO - Paris-Orly

DERNIER METAR :
  • 280300Z 23015G25KT 200V260 9999 BKN023 05/01 Q0995 NOSIG

METARs EXPIRÉS :
  • 280230Z 22014KT 9999 BKN023 05/01 Q0995 NOSIG
  • 280200Z 22014KT 190V250 9999 BKN023 05/01 Q0995 NOSIG
  • 280130Z 23016KT 9999 SCT023 BKN180 05/01 Q0995 NOSIG
  • 280100Z 23014KT 190V250 CAVOK 04/01 Q0995 NOSIG
  • 280030Z 23017KT 210V270 9999 FEW020 04/01 Q0995 NOSIG

TAF TAF LFPO
Valide du 28 à 00h jusqu'au 01 à 06h UTC


272300Z 2800/0106 21015KT 9999 SCT025 SCT040
PROB30
TEMPO 2800/2808 BKN012
TEMPO 2808/2824 21015G30KT 4000 SHRA SCT025CB
PROB30
TEMPO 2809/2815 21020G40KT 1500 TSRAGS BKN014 BKN020CB
ATIS : +33 1 49 75 65 80
Pas de NOTAMs connus pour ce terrain.
1 SIGMET publié pour la FIR Paris (LFFF) :
 
Turbulence forte
LFFF SIGMET 11 VALID 280000/280400 LFPW
LFFF PARIS FIR/UIR SEV TURB FCST WI N4915 W00015 - N5000 W00015 - N5100 E00145 - N5015 E00200 SFC/FL060 STNR NC=



MET'MAP, la Météo Aéronautique d'un coup d'oeil ! - Copyright ORBIFLY Décembre 2007 - Disclaimer

ORBIFLY MET'MAP TEAM :

Programmation & Développement : Alexandra Zaïnal
Conception & Développement : Baudouin d'Aumeries
Co-Programmation & Développement : Marc-Olivier Méhu
Soutien technique & logistique : Manuel Goepfert

Contact : metmap@orbifly.com




SOURCES & CREDITS :

   NOAA